sensor_id;sensor_type;location;lat;lon;timestamp;pressure;altitude;pressure_sealevel;temperature;humidity
11605;BME280;5858;43.076;25.626;2024-02-23T00:02:40;98989.09;;;8.80;74.54
11605;BME280;5858;43.076;25.626;2024-02-23T00:05:24;98983.72;;;8.66;74.85
11605;BME280;5858;43.076;25.626;2024-02-23T00:09:06;98809.66;;;7.74;75.15
11605;BME280;5858;43.076;25.626;2024-02-23T00:11:33;99031.53;;;9.28;75.24
11605;BME280;5858;43.076;25.626;2024-02-23T00:14:48;98987.63;;;8.93;75.56
11605;BME280;5858;43.076;25.626;2024-02-23T00:18:13;99030.50;;;9.29;75.89
11605;BME280;5858;43.076;25.626;2024-02-23T00:21:20;98916.03;;;8.44;76.17
11605;BME280;5858;43.076;25.626;2024-02-23T00:27:42;98958.44;;;8.76;76.17
11605;BME280;5858;43.076;25.626;2024-02-23T00:30:40;98877.38;;;8.25;75.59
11605;BME280;5858;43.076;25.626;2024-02-23T00:36:50;98828.81;;;7.92;75.13
11605;BME280;5858;43.076;25.626;2024-02-23T00:50:31;98903.53;;;8.67;74.75
11605;BME280;5858;43.076;25.626;2024-02-23T01:03:27;98964.03;;;9.19;72.17
11605;BME280;5858;43.076;25.626;2024-02-23T01:06:33;99006.69;;;9.42;72.31
11605;BME280;5858;43.076;25.626;2024-02-23T01:12:51;98994.47;;;9.48;71.84
11605;BME280;5858;43.076;25.626;2024-02-23T01:19:19;98796.59;;;8.25;70.73
11605;BME280;5858;43.076;25.626;2024-02-23T01:22:23;98797.41;;;8.25;71.38
11605;BME280;5858;43.076;25.626;2024-02-23T01:28:51;98907.25;;;9.10;70.41
11605;BME280;5858;43.076;25.626;2024-02-23T01:32:00;98838.50;;;8.54;70.55
11605;BME280;5858;43.076;25.626;2024-02-23T01:35:15;98767.53;;;8.30;72.79
11605;BME280;5858;43.076;25.626;2024-02-23T01:38:19;98958.63;;;9.12;73.14
11605;BME280;5858;43.076;25.626;2024-02-23T01:41:47;98748.34;;;7.82;74.13
11605;BME280;5858;43.076;25.626;2024-02-23T01:44:57;98829.81;;;8.14;75.01
11605;BME280;5858;43.076;25.626;2024-02-23T01:48:07;98791.88;;;7.89;75.78
11605;BME280;5858;43.076;25.626;2024-02-23T02:08:25;98763.00;;;7.55;77.15
11605;BME280;5858;43.076;25.626;2024-02-23T02:12:29;98830.41;;;8.01;77.63
11605;BME280;5858;43.076;25.626;2024-02-23T02:15:16;98772.25;;;7.67;76.69
11605;BME280;5858;43.076;25.626;2024-02-23T02:18:43;98774.69;;;7.77;75.71
11605;BME280;5858;43.076;25.626;2024-02-23T02:32:18;98771.91;;;7.70;76.37
11605;BME280;5858;43.076;25.626;2024-02-23T02:36:44;98764.63;;;7.64;76.34
11605;BME280;5858;43.076;25.626;2024-02-23T02:41:00;98881.38;;;8.44;76.77
11605;BME280;5858;43.076;25.626;2024-02-23T02:42:53;98899.22;;;8.43;76.64
11605;BME280;5858;43.076;25.626;2024-02-23T02:45:55;98871.91;;;8.41;75.90
11605;BME280;5858;43.076;25.626;2024-02-23T02:49:40;98848.13;;;8.17;77.16
11605;BME280;5858;43.076;25.626;2024-02-23T02:56:12;98866.78;;;8.17;74.64
11605;BME280;5858;43.076;25.626;2024-02-23T03:03:01;98894.59;;;8.60;74.50
11605;BME280;5858;43.076;25.626;2024-02-23T03:34:01;98766.63;;;7.39;76.02
11605;BME280;5858;43.076;25.626;2024-02-23T03:37:07;98755.72;;;7.57;74.25
11605;BME280;5858;43.076;25.626;2024-02-23T03:39:57;98898.50;;;8.49;74.77
11605;BME280;5858;43.076;25.626;2024-02-23T04:20:23;98957.41;;;8.63;76.23
11605;BME280;5858;43.076;25.626;2024-02-23T04:27:16;98919.91;;;8.41;75.87
11605;BME280;5858;43.076;25.626;2024-02-23T04:34:09;98880.94;;;8.17;75.72
11605;BME280;5858;43.076;25.626;2024-02-23T04:37:18;98782.19;;;7.50;74.57
11605;BME280;5858;43.076;25.626;2024-02-23T04:40:31;98898.41;;;8.20;74.83
11605;BME280;5858;43.076;25.626;2024-02-23T04:43:46;98898.31;;;8.28;75.27
11605;BME280;5858;43.076;25.626;2024-02-23T04:47:01;98882.50;;;8.04;75.95
11605;BME280;5858;43.076;25.626;2024-02-23T04:49:51;98902.91;;;8.19;74.54
11605;BME280;5858;43.076;25.626;2024-02-23T04:53:09;98978.38;;;8.66;74.09
11605;BME280;5858;43.076;25.626;2024-02-23T04:56:01;98813.78;;;7.53;73.78
11605;BME280;5858;43.076;25.626;2024-02-23T04:59:29;98907.94;;;8.14;74.59
11605;BME280;5858;43.076;25.626;2024-02-23T05:01:55;98881.63;;;7.88;73.94
11605;BME280;5858;43.076;25.626;2024-02-23T05:04:38;99013.81;;;8.74;73.80
11605;BME280;5858;43.076;25.626;2024-02-23T06:00:14;98829.59;;;8.61;74.13
11605;BME280;5858;43.076;25.626;2024-02-23T06:03:27;99014.19;;;10.12;71.64
11605;BME280;5858;43.076;25.626;2024-02-23T06:06:08;98929.13;;;10.37;69.99
11605;BME280;5858;43.076;25.626;2024-02-23T06:08:37;98973.91;;;11.27;65.28
11605;BME280;5858;43.076;25.626;2024-02-23T06:11:09;99002.84;;;12.07;60.56
11605;BME280;5858;43.076;25.626;2024-02-23T06:13:36;98876.78;;;11.46;59.02
11605;BME280;5858;43.076;25.626;2024-02-23T06:16:04;98982.72;;;12.38;56.64
11605;BME280;5858;43.076;25.626;2024-02-23T06:18:35;98955.84;;;12.24;56.33
11605;BME280;5858;43.076;25.626;2024-02-23T06:21:11;98984.59;;;12.57;55.52
11605;BME280;5858;43.076;25.626;2024-02-23T06:23:44;98834.59;;;11.68;55.17
11605;BME280;5858;43.076;25.626;2024-02-23T06:26:11;99023.44;;;12.74;52.72
11605;BME280;5858;43.076;25.626;2024-02-23T06:28:38;98907.69;;;11.83;53.61
11605;BME280;5858;43.076;25.626;2024-02-23T06:31:07;98979.34;;;12.16;53.95
11605;BME280;5858;43.076;25.626;2024-02-23T06:33:34;98993.34;;;12.05;54.72
11605;BME280;5858;43.076;25.626;2024-02-23T06:36:02;98965.38;;;11.79;54.63
11605;BME280;5858;43.076;25.626;2024-02-23T06:38:30;98894.56;;;11.19;54.98
11605;BME280;5858;43.076;25.626;2024-02-23T06:41:01;98999.81;;;11.82;54.98
11605;BME280;5858;43.076;25.626;2024-02-23T06:43:28;99019.31;;;11.97;55.27
11605;BME280;5858;43.076;25.626;2024-02-23T06:45:55;99038.50;;;12.01;56.26
11605;BME280;5858;43.076;25.626;2024-02-23T06:48:23;99039.09;;;11.96;56.39
11605;BME280;5858;43.076;25.626;2024-02-23T06:50:52;98884.13;;;10.96;56.36
11605;BME280;5858;43.076;25.626;2024-02-23T06:53:19;98981.13;;;11.61;55.44
11605;BME280;5858;43.076;25.626;2024-02-23T06:55:46;99033.56;;;12.05;55.58
11605;BME280;5858;43.076;25.626;2024-02-23T06:58:26;98931.16;;;11.40;55.09
11605;BME280;5858;43.076;25.626;2024-02-23T07:52:08;99019.72;;;12.69;52.22
11605;BME280;5858;43.076;25.626;2024-02-23T08:05:21;99008.19;;;13.14;51.03
11605;BME280;5858;43.076;25.626;2024-02-23T08:08:42;98836.16;;;12.10;50.42
11605;BME280;5858;43.076;25.626;2024-02-23T08:14:50;99005.31;;;13.49;49.81
11605;BME280;5858;43.076;25.626;2024-02-23T08:21:13;98989.78;;;13.58;48.37
11605;BME280;5858;43.076;25.626;2024-02-23T08:24:11;98997.59;;;13.66;47.78
11605;BME280;5858;43.076;25.626;2024-02-23T08:26:48;99008.50;;;13.97;47.67
11605;BME280;5858;43.076;25.626;2024-02-23T08:29:57;99008.69;;;14.02;47.01
11605;BME280;5858;43.076;25.626;2024-02-23T08:32:41;98980.34;;;14.00;46.80
11605;BME280;5858;43.076;25.626;2024-02-23T08:35:16;99009.41;;;14.29;46.26
11605;BME280;5858;43.076;25.626;2024-02-23T08:37:49;98956.97;;;13.94;45.63
11605;BME280;5858;43.076;25.626;2024-02-23T08:40:18;98976.97;;;14.11;45.43
11605;BME280;5858;43.076;25.626;2024-02-23T08:43:06;98953.75;;;14.16;44.96
11605;BME280;5858;43.076;25.626;2024-02-23T08:45:47;98975.63;;;14.33;44.43
11605;BME280;5858;43.076;25.626;2024-02-23T08:48:17;98994.81;;;14.50;44.22
11605;BME280;5858;43.076;25.626;2024-02-23T08:50:48;99027.81;;;14.77;43.74
11605;BME280;5858;43.076;25.626;2024-02-23T08:53:21;99029.22;;;14.79;43.12
11605;BME280;5858;43.076;25.626;2024-02-23T08:55:51;99014.34;;;14.77;43.68
11605;BME280;5858;43.076;25.626;2024-02-23T08:58:20;98856.13;;;13.78;43.36
11605;BME280;5858;43.076;25.626;2024-02-23T09:25:35;99010.06;;;15.69;40.18
11605;BME280;5858;43.076;25.626;2024-02-23T09:28:03;99023.47;;;15.76;40.53
11605;BME280;5858;43.076;25.626;2024-02-23T09:30:33;98839.41;;;14.82;40.04
11605;BME280;5858;43.076;25.626;2024-02-23T09:33:00;98956.72;;;15.71;39.38
11605;BME280;5858;43.076;25.626;2024-02-23T09:35:27;98992.66;;;16.01;39.27
11605;BME280;5858;43.076;25.626;2024-02-23T09:37:56;98884.00;;;15.39;38.82
11605;BME280;5858;43.076;25.626;2024-02-23T09:40:23;98982.22;;;16.23;38.95
11605;BME280;5858;43.076;25.626;2024-02-23T09:43:14;98998.69;;;16.33;38.01
11605;BME280;5858;43.076;25.626;2024-02-23T09:45:52;98872.03;;;15.72;37.74
11605;BME280;5858;43.076;25.626;2024-02-23T09:48:32;98892.69;;;15.78;37.05
11605;BME280;5858;43.076;25.626;2024-02-23T09:51:01;98872.13;;;15.65;36.79
11605;BME280;5858;43.076;25.626;2024-02-23T09:53:29;98996.91;;;16.57;36.45
11605;BME280;5858;43.076;25.626;2024-02-23T09:56:02;98831.56;;;15.72;37.19
11605;BME280;5858;43.076;25.626;2024-02-23T09:58:51;98819.28;;;15.76;37.05
11605;BME280;5858;43.076;25.626;2024-02-23T10:01:31;98965.16;;;16.83;36.58
11605;BME280;5858;43.076;25.626;2024-02-23T10:08:00;98967.81;;;17.13;35.08
11605;BME280;5858;43.076;25.626;2024-02-23T10:10:52;98818.22;;;16.19;34.46
11605;BME280;5858;43.076;25.626;2024-02-23T10:20:20;98813.19;;;16.34;34.92
11605;BME280;5858;43.076;25.626;2024-02-23T10:22:48;98957.91;;;17.42;35.49
11605;BME280;5858;43.076;25.626;2024-02-23T10:25:21;98816.44;;;16.66;33.73
11605;BME280;5858;43.076;25.626;2024-02-23T10:31:06;98789.38;;;16.54;33.83
11605;BME280;5858;43.076;25.626;2024-02-23T10:33:52;98945.22;;;17.54;33.57
11605;BME280;5858;43.076;25.626;2024-02-23T10:36:47;98914.66;;;17.53;34.32
11605;BME280;5858;43.076;25.626;2024-02-23T10:47:04;98929.59;;;17.68;33.39
11605;BME280;5858;43.076;25.626;2024-02-23T10:50:12;98915.09;;;17.74;32.85
11605;BME280;5858;43.076;25.626;2024-02-23T11:13:07;98834.81;;;18.08;30.80
11605;BME280;5858;43.076;25.626;2024-02-23T11:15:48;98696.00;;;17.22;30.56
11605;BME280;5858;43.076;25.626;2024-02-23T11:19:03;98887.25;;;18.47;30.56
11605;BME280;5858;43.076;25.626;2024-02-23T11:21:37;98767.59;;;17.59;31.31
11605;BME280;5858;43.076;25.626;2024-02-23T11:24:05;98890.22;;;18.45;31.75
11605;BME280;5858;43.076;25.626;2024-02-23T11:26:41;98841.75;;;18.32;31.08
11605;BME280;5858;43.076;25.626;2024-02-23T11:29:39;98821.78;;;18.21;31.20
11605;BME280;5858;43.076;25.626;2024-02-23T11:32:41;98882.03;;;18.74;30.47
11605;BME280;5858;43.076;25.626;2024-02-23T11:35:29;98802.25;;;18.03;32.08
11605;BME280;5858;43.076;25.626;2024-02-23T11:38:22;98799.00;;;17.89;32.01
11605;BME280;5858;43.076;25.626;2024-02-23T11:41:04;98736.94;;;17.54;32.72
11605;BME280;5858;43.076;25.626;2024-02-23T11:43:39;98752.94;;;17.44;32.85
11605;BME280;5858;43.076;25.626;2024-02-23T11:46:14;98780.75;;;17.68;32.00
11605;BME280;5858;43.076;25.626;2024-02-23T11:48:42;98875.00;;;18.44;32.64
11605;BME280;5858;43.076;25.626;2024-02-23T11:51:20;98812.91;;;18.09;30.69
11605;BME280;5858;43.076;25.626;2024-02-23T11:53:49;98847.41;;;18.31;30.62
11605;BME280;5858;43.076;25.626;2024-02-23T11:56:16;98838.22;;;18.32;30.79
11605;BME280;5858;43.076;25.626;2024-02-23T11:58:47;98868.78;;;18.61;30.24
11605;BME280;5858;43.076;25.626;2024-02-23T12:01:17;98832.38;;;18.40;30.33
11605;BME280;5858;43.076;25.626;2024-02-23T12:03:44;98766.47;;;18.01;29.82
11605;BME280;5858;43.076;25.626;2024-02-23T12:06:14;98837.63;;;18.30;29.19
11605;BME280;5858;43.076;25.626;2024-02-23T12:08:43;98710.41;;;17.68;28.61
11605;BME280;5858;43.076;25.626;2024-02-23T12:11:14;98782.97;;;17.99;29.59
11605;BME280;5858;43.076;25.626;2024-02-23T12:13:47;98859.63;;;18.62;28.15
11605;BME280;5858;43.076;25.626;2024-02-23T12:16:16;98752.28;;;18.10;28.86
11605;BME280;5858;43.076;25.626;2024-02-23T12:18:44;98829.31;;;18.65;27.73
11605;BME280;5858;43.076;25.626;2024-02-23T12:21:12;98744.56;;;18.02;28.84
11605;BME280;5858;43.076;25.626;2024-02-23T12:23:40;98848.44;;;18.75;29.76
11605;BME280;5858;43.076;25.626;2024-02-23T12:26:09;98794.22;;;18.58;29.78
11605;BME280;5858;43.076;25.626;2024-02-23T12:28:39;98846.88;;;18.96;30.31
11605;BME280;5858;43.076;25.626;2024-02-23T12:31:11;98710.34;;;18.13;30.94
11605;BME280;5858;43.076;25.626;2024-02-23T12:33:54;98725.19;;;18.27;30.49
11605;BME280;5858;43.076;25.626;2024-02-23T12:37:01;98774.53;;;18.46;30.27
11605;BME280;5858;43.076;25.626;2024-02-23T12:39:38;98836.53;;;18.76;30.36
11605;BME280;5858;43.076;25.626;2024-02-23T12:42:16;98824.78;;;18.70;30.50
11605;BME280;5858;43.076;25.626;2024-02-23T12:44:46;98813.63;;;18.67;30.59
11605;BME280;5858;43.076;25.626;2024-02-23T12:47:33;98853.50;;;18.88;30.51
11605;BME280;5858;43.076;25.626;2024-02-23T12:50:30;98850.72;;;18.83;30.90
11605;BME280;5858;43.076;25.626;2024-02-23T12:53:32;98844.47;;;18.82;31.21
11605;BME280;5858;43.076;25.626;2024-02-23T12:56:02;98740.22;;;18.18;31.34
11605;BME280;5858;43.076;25.626;2024-02-23T12:58:32;98723.66;;;17.98;31.52
11605;BME280;5858;43.076;25.626;2024-02-23T13:01:00;98860.03;;;18.70;31.01
11605;BME280;5858;43.076;25.626;2024-02-23T13:03:28;98749.91;;;18.14;30.61
11605;BME280;5858;43.076;25.626;2024-02-23T13:05:58;98671.25;;;17.58;30.54
11605;BME280;5858;43.076;25.626;2024-02-23T13:08:31;98777.38;;;18.22;29.88
11605;BME280;5858;43.076;25.626;2024-02-23T13:10:58;98754.50;;;18.13;30.33
11605;BME280;5858;43.076;25.626;2024-02-23T13:13:31;98833.34;;;18.62;30.44
11605;BME280;5858;43.076;25.626;2024-02-23T13:15:59;98659.56;;;17.70;30.96
11605;BME280;5858;43.076;25.626;2024-02-23T13:18:41;98804.34;;;18.63;30.72
11605;BME280;5858;43.076;25.626;2024-02-23T13:21:17;98808.78;;;18.69;30.10
11605;BME280;5858;43.076;25.626;2024-02-23T13:23:44;98690.41;;;17.85;30.13
11605;BME280;5858;43.076;25.626;2024-02-23T13:26:28;98847.50;;;18.86;30.46
11605;BME280;5858;43.076;25.626;2024-02-23T13:29:04;98856.06;;;18.78;30.96
11605;BME280;5858;43.076;25.626;2024-02-23T13:31:37;98700.75;;;18.05;30.62
11605;BME280;5858;43.076;25.626;2024-02-23T13:34:11;98764.34;;;18.36;30.63
11605;BME280;5858;43.076;25.626;2024-02-23T13:36:42;98851.78;;;18.82;30.72
11605;BME280;5858;43.076;25.626;2024-02-23T13:39:13;98735.78;;;18.12;30.03
11605;BME280;5858;43.076;25.626;2024-02-23T13:41:40;98803.91;;;18.54;30.52
11605;BME280;5858;43.076;25.626;2024-02-23T13:44:07;98747.44;;;18.29;29.82
11605;BME280;5858;43.076;25.626;2024-02-23T13:46:37;98737.34;;;18.08;29.83
11605;BME280;5858;43.076;25.626;2024-02-23T13:51:55;98637.91;;;17.53;30.73
11605;BME280;5858;43.076;25.626;2024-02-23T13:54:22;98736.69;;;18.17;30.17
11605;BME280;5858;43.076;25.626;2024-02-23T13:56:52;98659.56;;;17.70;30.67
11605;BME280;5858;43.076;25.626;2024-02-23T13:59:26;98817.06;;;18.79;30.72
11605;BME280;5858;43.076;25.626;2024-02-23T14:01:53;98751.31;;;18.16;30.62
11605;BME280;5858;43.076;25.626;2024-02-23T14:04:20;98811.47;;;18.69;30.72
11605;BME280;5858;43.076;25.626;2024-02-23T14:06:52;98786.66;;;18.43;30.71
11605;BME280;5858;43.076;25.626;2024-02-23T14:09:19;98744.25;;;17.99;30.54
11605;BME280;5858;43.076;25.626;2024-02-23T14:11:46;98767.72;;;18.27;30.32
11605;BME280;5858;43.076;25.626;2024-02-23T14:14:15;98640.16;;;17.44;31.10
11605;BME280;5858;43.076;25.626;2024-02-23T14:16:45;98824.84;;;18.59;30.41
11605;BME280;5858;43.076;25.626;2024-02-23T14:19:15;98715.59;;;17.86;30.61
11605;BME280;5858;43.076;25.626;2024-02-23T14:21:47;98782.56;;;18.24;30.79
11605;BME280;5858;43.076;25.626;2024-02-23T14:24:18;98744.47;;;17.97;31.04
11605;BME280;5858;43.076;25.626;2024-02-23T14:26:48;98820.66;;;18.51;31.00
11605;BME280;5858;43.076;25.626;2024-02-23T14:29:19;98674.31;;;17.34;30.74
11605;BME280;5858;43.076;25.626;2024-02-23T14:31:45;98749.66;;;17.99;31.54
11605;BME280;5858;43.076;25.626;2024-02-23T14:34:12;98819.00;;;18.33;31.34
11605;BME280;5858;43.076;25.626;2024-02-23T14:36:50;98832.22;;;18.30;30.87
11605;BME280;5858;43.076;25.626;2024-02-23T14:39:44;98796.75;;;18.14;31.12
11605;BME280;5858;43.076;25.626;2024-02-23T14:42:31;98691.31;;;17.46;31.42
11605;BME280;5858;43.076;25.626;2024-02-23T14:45:28;98769.22;;;17.89;31.22
11605;BME280;5858;43.076;25.626;2024-02-23T14:51:40;98740.53;;;17.59;31.57
11605;BME280;5858;43.076;25.626;2024-02-23T14:54:42;98722.50;;;17.37;31.73
11605;BME280;5858;43.076;25.626;2024-02-23T15:00:33;98758.91;;;17.57;32.33
11605;BME280;5858;43.076;25.626;2024-02-23T15:03:22;98838.59;;;18.07;32.09
11605;BME280;5858;43.076;25.626;2024-02-23T15:05:57;98864.19;;;17.99;32.38
11605;BME280;5858;43.076;25.626;2024-02-23T15:08:38;98669.56;;;16.84;32.83
11605;BME280;5858;43.076;25.626;2024-02-23T15:11:35;98827.88;;;17.83;32.54
11605;BME280;5858;43.076;25.626;2024-02-23T15:14:32;98735.06;;;17.14;33.24
11605;BME280;5858;43.076;25.626;2024-02-23T15:17:08;98775.44;;;17.33;32.77
11605;BME280;5858;43.076;25.626;2024-02-23T15:19:35;98833.59;;;17.58;33.04
11605;BME280;5858;43.076;25.626;2024-02-23T15:22:04;98862.13;;;17.78;32.98
11605;BME280;5858;43.076;25.626;2024-02-23T15:24:44;98828.56;;;17.50;33.20
11605;BME280;5858;43.076;25.626;2024-02-23T15:27:23;98879.22;;;17.67;33.53
11605;BME280;5858;43.076;25.626;2024-02-23T15:30:10;98799.38;;;17.12;33.90
11605;BME280;5858;43.076;25.626;2024-02-23T15:32:42;98815.91;;;17.27;34.00
11605;BME280;5858;43.076;25.626;2024-02-23T15:35:25;98735.03;;;16.74;33.94
11605;BME280;5858;43.076;25.626;2024-02-23T15:38:07;98806.16;;;17.26;34.10
11605;BME280;5858;43.076;25.626;2024-02-23T15:40:43;98814.75;;;17.00;34.54
11605;BME280;5858;43.076;25.626;2024-02-23T15:43:22;98847.22;;;17.12;34.76
11605;BME280;5858;43.076;25.626;2024-02-23T15:45:57;98713.38;;;16.04;34.98
11605;BME280;5858;43.076;25.626;2024-02-23T15:48:32;98822.88;;;16.88;35.71
11605;BME280;5858;43.076;25.626;2024-02-23T15:51:08;98855.88;;;17.02;35.54
11605;BME280;5858;43.076;25.626;2024-02-23T15:53:54;98695.19;;;15.88;35.35
11605;BME280;5858;43.076;25.626;2024-02-23T15:56:57;98680.63;;;15.65;36.24
11605;BME280;5858;43.076;25.626;2024-02-23T16:03:45;98728.44;;;15.40;38.19
11605;BME280;5858;43.076;25.626;2024-02-23T16:50:46;98773.50;;;14.66;42.54
11605;BME280;5858;43.076;25.626;2024-02-23T16:57:15;98783.22;;;14.86;42.80
11605;BME280;5858;43.076;25.626;2024-02-23T17:03:48;98892.38;;;15.31;43.45
11605;BME280;5858;43.076;25.626;2024-02-23T17:06:20;98866.16;;;15.02;43.60
11605;BME280;5858;43.076;25.626;2024-02-23T17:42:22;98810.44;;;14.03;46.11
11605;BME280;5858;43.076;25.626;2024-02-23T17:54:52;98817.44;;;13.79;47.73
11605;BME280;5858;43.076;25.626;2024-02-23T17:57:59;98857.25;;;13.95;48.00
11605;BME280;5858;43.076;25.626;2024-02-23T20:01:29;98877.25;;;12.50;65.14
11605;BME280;5858;43.076;25.626;2024-02-23T21:35:26;98976.47;;;12.17;73.59
11605;BME280;5858;43.076;25.626;2024-02-23T21:45:54;99017.22;;;12.47;74.04
11605;BME280;5858;43.076;25.626;2024-02-23T22:06:11;99009.91;;;12.21;75.91
11605;BME280;5858;43.076;25.626;2024-02-23T22:52:12;98887.69;;;11.03;77.08
11605;BME280;5858;43.076;25.626;2024-02-23T22:55:49;99009.09;;;11.80;77.55
11605;BME280;5858;43.076;25.626;2024-02-23T23:05:55;98863.28;;;10.57;78.17
11605;BME280;5858;43.076;25.626;2024-02-23T23:09:11;98952.53;;;11.33;77.53
11605;BME280;5858;43.076;25.626;2024-02-23T23:15:23;98885.44;;;10.79;77.55
11605;BME280;5858;43.076;25.626;2024-02-23T23:25:06;98858.56;;;10.38;78.88
11605;BME280;5858;43.076;25.626;2024-02-23T23:31:54;98839.16;;;10.29;78.53
11605;BME280;5858;43.076;25.626;2024-02-23T23:35:16;98897.16;;;10.78;78.31
11605;BME280;5858;43.076;25.626;2024-02-23T23:39:30;99030.53;;;11.45;78.04
11605;BME280;5858;43.076;25.626;2024-02-23T23:45:21;98997.06;;;11.07;78.63
11605;BME280;5858;43.076;25.626;2024-02-23T23:55:19;98851.84;;;10.21;77.78
11605;BME280;5858;43.076;25.626;2024-02-23T23:58:21;98933.56;;;10.72;78.23
